Time;durP1;ratioP1;P1;durP2;ratioP2;P2;SDS_P1;SDS_P2;PMS_P1;PMS_P2;Temp;Humidity;BMP_temperature;BMP_pressure;BME280_temperature;BME280_humidity;BME280_pressure;Samples;Min_cycle;Max_cycle;Signal;HPM_P1;HPM_P2
2023/06/06 00:00:40;;;;;;;4.53;2.95;;;15.10;99.90;;;;;;5118334;28;20487;-81
2023/06/06 00:03:06;;;;;;;3.88;2.53;;;15.10;99.90;;;;;;5119204;28;20036;-81
2023/06/06 00:05:33;;;;;;;8.18;2.78;;;15.00;99.90;;;;;;5110685;28;20130;-82
2023/06/06 00:07:59;;;;;;;6.47;2.78;;;15.00;99.90;;;;;;5111199;28;20067;-81
2023/06/06 00:10:25;;;;;;;4.50;3.28;;;14.90;99.90;;;;;;5118348;28;20114;-82
2023/06/06 00:12:52;;;;;;;4.30;3.05;;;14.80;99.90;;;;;;5107628;28;20047;-81
2023/06/06 00:15:19;;;;;;;5.93;2.75;;;14.80;99.90;;;;;;5107736;28;20057;-82
2023/06/06 00:17:45;;;;;;;4.85;2.55;;;14.80;99.90;;;;;;5113343;27;20437;-82
2023/06/06 00:20:11;;;;;;;5.10;2.75;;;14.70;99.90;;;;;;5110991;27;20027;-81
2023/06/06 00:22:37;;;;;;;4.97;3.38;;;14.70;99.90;;;;;;5115152;27;20028;-82
2023/06/06 00:25:04;;;;;;;10.88;3.20;;;14.70;99.90;;;;;;5107375;27;20043;-81
2023/06/06 00:27:32;;;;;;;6.35;2.70;;;14.70;99.90;;;;;;5112505;27;20039;-81
2023/06/06 00:29:58;;;;;;;5.65;3.13;;;14.60;99.90;;;;;;5114907;27;20028;-81
2023/06/06 00:32:23;;;;;;;13.40;3.35;;;14.60;99.90;;;;;;5120746;27;20042;-81
2023/06/06 00:34:49;;;;;;;11.23;3.28;;;14.60;99.90;;;;;;5119331;27;20391;-81
2023/06/06 00:37:15;;;;;;;6.70;3.10;;;14.60;99.90;;;;;;5115561;27;20027;-81
2023/06/06 00:39:40;;;;;;;7.50;3.40;;;14.50;99.90;;;;;;5099350;27;20449;-81
2023/06/06 00:42:06;;;;;;;12.40;3.33;;;14.50;99.90;;;;;;5126282;27;20058;-82
2023/06/06 00:44:32;;;;;;;9.02;2.88;;;14.50;99.90;;;;;;5111556;27;20374;-81
2023/06/06 00:46:57;;;;;;;5.50;3.03;;;14.50;99.90;;;;;;5115609;27;20080;-82
2023/06/06 00:49:23;;;;;;;5.63;3.42;;;14.40;99.90;;;;;;5128138;27;20065;-82
2023/06/06 00:51:49;;;;;;;6.03;3.33;;;14.40;99.90;;;;;;5104661;27;20056;-81
2023/06/06 00:54:17;;;;;;;5.97;2.97;;;14.40;99.90;;;;;;5116731;27;20105;-81
2023/06/06 00:56:44;;;;;;;8.88;3.30;;;14.40;99.90;;;;;;5104726;27;20024;-82
2023/06/06 00:59:11;;;;;;;6.25;2.88;;;14.40;99.90;;;;;;5091085;27;20030;-81
2023/06/06 01:01:39;;;;;;;6.65;2.63;;;14.30;99.90;;;;;;5115810;27;20084;-82
2023/06/06 01:04:07;;;;;;;7.03;3.30;;;14.30;99.90;;;;;;5112846;27;20028;-82
2023/06/06 01:06:34;;;;;;;7.63;3.40;;;14.30;99.90;;;;;;5108972;27;20023;-81
2023/06/06 01:09:04;;;;;;;5.60;3.22;;;14.30;99.90;;;;;;5119788;27;20032;-82
2023/06/06 01:11:50;;;;;;;6.95;3.13;;;14.30;99.90;;;;;;5122259;27;20416;-81
2023/06/06 01:14:40;;;;;;;19.27;3.85;;;14.20;99.90;;;;;;5112884;27;20535;-82
2023/06/06 01:17:09;;;;;;;3.78;2.70;;;14.10;99.90;;;;;;5109134;27;20063;-82
2023/06/06 01:19:37;;;;;;;9.85;3.28;;;14.10;99.90;;;;;;5113240;27;20120;-82
2023/06/06 01:22:04;;;;;;;4.22;3.08;;;14.00;99.90;;;;;;5112668;27;20039;-82
2023/06/06 01:24:30;;;;;;;4.28;3.13;;;14.00;99.90;;;;;;5119832;27;20110;-81
2023/06/06 01:26:56;;;;;;;4.65;3.10;;;13.90;99.90;;;;;;5116775;27;20191;-82
2023/06/06 01:29:22;;;;;;;14.02;3.53;;;13.90;99.90;;;;;;5110644;27;20050;-81
2023/06/06 01:32:14;;;;;;;4.10;2.85;;;13.90;99.90;;;;;;5102214;27;20374;-82
2023/06/06 01:34:48;;;;;;;7.38;3.10;;;13.80;99.90;;;;;;5101735;27;20024;-81
2023/06/06 01:37:44;;;;;;;4.17;2.77;;;13.90;99.90;;;;;;5096921;27;20259;-82
2023/06/06 01:40:13;;;;;;;4.50;2.95;;;13.80;99.90;;;;;;5111691;27;20536;-81
2023/06/06 01:42:45;;;;;;;6.18;2.88;;;13.80;99.90;;;;;;5110884;27;20115;-81
2023/06/06 01:45:14;;;;;;;7.45;3.17;;;13.80;99.90;;;;;;5124259;27;20027;-81
2023/06/06 01:47:40;;;;;;;5.47;3.33;;;13.70;99.90;;;;;;5105250;27;20038;-82
2023/06/06 01:50:08;;;;;;;4.10;2.85;;;13.70;99.90;;;;;;5088923;27;20046;-81
2023/06/06 01:52:35;;;;;;;5.80;3.45;;;13.70;99.90;;;;;;5106815;27;20055;-81
2023/06/06 01:55:01;;;;;;;9.15;3.92;;;13.60;99.90;;;;;;5096702;27;20058;-81
2023/06/06 01:57:30;;;;;;;7.85;3.10;;;13.60;99.90;;;;;;5089328;28;20077;-81
2023/06/06 01:59:55;;;;;;;5.47;3.47;;;13.50;99.90;;;;;;5102667;27;20043;-81
2023/06/06 02:02:21;;;;;;;5.95;3.47;;;13.50;99.90;;;;;;5106179;27;20020;-82
2023/06/06 02:04:48;;;;;;;5.15;2.95;;;13.50;99.90;;;;;;5111575;27;20031;-81
2023/06/06 02:07:15;;;;;;;6.80;3.55;;;13.50;99.90;;;;;;5116084;27;20023;-81
2023/06/06 02:09:42;;;;;;;5.95;2.85;;;13.50;99.90;;;;;;5108366;27;20011;-81
2023/06/06 02:12:08;;;;;;;6.05;3.60;;;13.40;99.90;;;;;;5115521;27;20572;-81
2023/06/06 02:14:34;;;;;;;4.55;3.20;;;13.40;99.90;;;;;;5110016;27;20018;-81
2023/06/06 02:17:00;;;;;;;7.05;3.10;;;13.30;99.90;;;;;;5111959;27;20035;-82
2023/06/06 02:19:28;;;;;;;5.50;3.13;;;13.30;99.90;;;;;;5115804;27;20031;-81
2023/06/06 02:21:53;;;;;;;7.63;3.05;;;13.30;99.90;;;;;;5106356;27;20484;-81
2023/06/06 02:24:20;;;;;;;6.65;3.28;;;13.20;99.90;;;;;;5116802;27;20024;-82
2023/06/06 02:26:47;;;;;;;5.75;3.38;;;13.20;99.90;;;;;;5112283;27;20119;-83
2023/06/06 02:29:13;;;;;;;10.82;3.67;;;13.10;99.90;;;;;;5117241;27;20023;-82
2023/06/06 02:31:39;;;;;;;7.55;3.03;;;13.10;99.90;;;;;;5113333;27;20370;-82
2023/06/06 02:34:04;;;;;;;5.72;3.25;;;13.10;99.90;;;;;;5113559;27;20027;-82
2023/06/06 02:36:31;;;;;;;6.30;3.33;;;13.00;99.90;;;;;;5114869;27;20126;-83
2023/06/06 02:38:57;;;;;;;5.13;2.83;;;13.00;99.90;;;;;;5109376;27;20505;-82
2023/06/06 02:41:23;;;;;;;7.95;3.15;;;13.00;99.90;;;;;;5110911;27;20030;-83
2023/06/06 02:43:49;;;;;;;6.03;3.45;;;12.90;99.90;;;;;;5109606;27;20035;-83
2023/06/06 02:46:15;;;;;;;12.35;3.65;;;12.90;99.90;;;;;;5115741;27;20032;-83
2023/06/06 02:48:45;;;;;;;7.20;4.03;;;12.80;99.90;;;;;;5116456;27;20026;-82
2023/06/06 02:51:11;;;;;;;6.15;3.60;;;12.80;99.90;;;;;;5116945;27;20027;-83
2023/06/06 02:53:40;;;;;;;4.05;2.97;;;12.70;99.90;;;;;;5114748;27;20392;-83
2023/06/06 02:56:07;;;;;;;9.40;3.15;;;12.70;99.90;;;;;;5108529;27;20473;-82
2023/06/06 02:58:33;;;;;;;9.48;2.95;;;12.60;99.90;;;;;;5117892;27;20046;-83
2023/06/06 03:01:03;;;;;;;7.15;3.20;;;12.70;99.90;;;;;;5119873;27;20036;-83
2023/06/06 03:03:29;;;;;;;6.15;3.30;;;12.60;99.90;;;;;;5121973;27;20050;-82
2023/06/06 03:05:56;;;;;;;8.48;3.38;;;12.60;99.90;;;;;;5117315;27;20127;-82
2023/06/06 03:08:23;;;;;;;7.85;3.47;;;12.60;99.90;;;;;;5114059;27;20705;-83
2023/06/06 03:10:50;;;;;;;4.30;3.15;;;12.50;99.90;;;;;;5105748;27;20495;-82
2023/06/06 03:13:16;;;;;;;4.03;3.25;;;12.40;99.90;;;;;;5106244;27;20035;-82
2023/06/06 03:15:45;;;;;;;7.32;4.10;;;12.50;99.90;;;;;;5117030;27;20393;-82
2023/06/06 03:18:23;;;;;;;10.15;3.70;;;12.40;99.90;;;;;;5112542;27;20036;-82
2023/06/06 03:20:51;;;;;;;4.97;3.08;;;12.40;99.90;;;;;;5109160;27;20035;-83
2023/06/06 03:23:17;;;;;;;4.95;3.65;;;12.50;99.90;;;;;;5113880;27;20015;-83
2023/06/06 03:25:44;;;;;;;9.98;3.55;;;12.40;99.90;;;;;;5109812;27;20055;-82
2023/06/06 03:28:11;;;;;;;7.28;3.50;;;12.50;99.90;;;;;;5107613;28;20480;-83
2023/06/06 03:30:37;;;;;;;5.68;3.05;;;12.40;99.90;;;;;;5109020;28;20028;-82
2023/06/06 03:33:05;;;;;;;5.47;3.53;;;12.50;99.90;;;;;;5111130;28;20051;-83
2023/06/06 03:35:33;;;;;;;8.40;3.78;;;12.50;99.90;;;;;;5109246;28;20153;-83
2023/06/06 03:38:02;;;;;;;4.82;3.53;;;12.60;99.90;;;;;;5104884;28;20043;-82
2023/06/06 03:40:28;;;;;;;7.95;3.80;;;12.60;99.90;;;;;;5083168;28;20025;-82
2023/06/06 03:42:54;;;;;;;5.70;3.38;;;12.60;99.90;;;;;;5084691;28;20046;-82
2023/06/06 03:45:21;;;;;;;8.00;4.40;;;12.70;99.90;;;;;;5086546;28;20024;-81
2023/06/06 03:47:50;;;;;;;12.48;4.15;;;12.70;99.90;;;;;;5066989;28;20035;-82
2023/06/06 03:50:17;;;;;;;5.72;3.28;;;12.70;99.90;;;;;;5081743;27;20020;-82
2023/06/06 03:52:43;;;;;;;4.28;3.28;;;12.80;99.90;;;;;;5087802;28;20049;-82
2023/06/06 03:55:09;;;;;;;5.22;3.17;;;12.80;99.90;;;;;;5087517;28;20389;-82
2023/06/06 03:57:37;;;;;;;4.20;3.30;;;12.80;99.90;;;;;;5087812;28;20019;-81
2023/06/06 04:00:10;;;;;;;4.88;3.70;;;13.00;99.90;;;;;;5088673;27;20499;-82
2023/06/06 04:02:36;;;;;;;6.28;3.60;;;13.00;99.90;;;;;;5103934;28;20385;-82
2023/06/06 04:05:02;;;;;;;6.35;3.65;;;13.00;99.90;;;;;;5115136;27;20027;-81
2023/06/06 04:07:28;;;;;;;6.68;3.70;;;13.10;99.90;;;;;;5111843;27;20047;-83
2023/06/06 04:09:55;;;;;;;5.55;3.33;;;13.10;99.90;;;;;;5114117;27;20055;-82
2023/06/06 04:12:21;;;;;;;3.90;3.30;;;13.20;99.90;;;;;;5116199;27;20051;-83
2023/06/06 04:14:47;;;;;;;7.72;3.83;;;13.20;99.90;;;;;;5115581;27;20111;-82
2023/06/06 04:17:13;;;;;;;8.30;3.67;;;13.30;99.90;;;;;;5115020;27;20062;-82
2023/06/06 04:19:39;;;;;;;5.95;3.55;;;13.30;99.90;;;;;;5103629;28;20055;-82
2023/06/06 04:22:05;;;;;;;4.90;2.95;;;13.40;99.90;;;;;;5110245;27;20051;-82
2023/06/06 04:24:32;;;;;;;4.93;3.42;;;13.40;99.90;;;;;;5121022;27;20403;-82
2023/06/06 04:27:03;;;;;;;5.97;3.70;;;13.50;99.90;;;;;;5107660;27;20124;-81
2023/06/06 04:29:32;;;;;;;7.72;3.30;;;13.50;99.90;;;;;;5114224;27;20420;-81
2023/06/06 04:31:59;;;;;;;6.28;3.28;;;13.60;99.90;;;;;;5110166;27;20108;-81
2023/06/06 04:34:29;;;;;;;4.88;3.72;;;13.70;99.90;;;;;;5105829;27;20106;-80
2023/06/06 04:36:56;;;;;;;5.00;3.50;;;13.70;99.90;;;;;;5101090;28;20024;-80
2023/06/06 04:39:23;;;;;;;5.85;2.90;;;13.70;99.90;;;;;;5106686;27;20501;-81
2023/06/06 04:41:50;;;;;;;5.82;3.50;;;13.80;99.90;;;;;;5109925;27;20030;-81
2023/06/06 04:44:17;;;;;;;6.88;3.70;;;13.90;99.90;;;;;;5100831;27;20020;-81
2023/06/06 04:46:43;;;;;;;10.38;3.92;;;13.90;99.90;;;;;;5109929;27;20431;-81
2023/06/06 04:49:09;;;;;;;4.97;3.42;;;14.00;99.90;;;;;;5099511;27;20034;-81
2023/06/06 04:51:36;;;;;;;7.82;3.47;;;14.00;99.90;;;;;;5103714;27;20054;-81
2023/06/06 04:54:08;;;;;;;9.27;4.13;;;14.00;99.90;;;;;;5101863;28;20814;-81
2023/06/06 04:56:34;;;;;;;4.60;3.03;;;14.10;99.90;;;;;;5114574;27;20461;-81
2023/06/06 04:59:09;;;;;;;5.03;3.53;;;14.20;99.90;;;;;;5116076;27;20088;-81
2023/06/06 05:01:37;;;;;;;5.47;3.10;;;14.30;99.90;;;;;;5124475;27;20016;-81
2023/06/06 05:04:03;;;;;;;7.72;3.67;;;14.40;99.90;;;;;;5123077;27;20066;-81
2023/06/06 05:06:31;;;;;;;6.28;3.17;;;14.40;99.90;;;;;;5109134;27;20026;-82
2023/06/06 05:08:59;;;;;;;5.45;3.28;;;14.50;99.90;;;;;;5100335;27;20023;-81
2023/06/06 05:11:25;;;;;;;6.13;3.30;;;14.50;99.90;;;;;;5114972;27;20032;-81
2023/06/06 05:13:51;;;;;;;15.23;3.58;;;14.60;99.90;;;;;;5121988;27;20387;-81
2023/06/06 05:16:16;;;;;;;9.10;4.15;;;14.70;99.90;;;;;;5112226;27;20440;-81
2023/06/06 05:18:42;;;;;;;5.55;3.05;;;14.70;99.90;;;;;;5119056;27;20027;-81
2023/06/06 05:21:08;;;;;;;6.53;3.17;;;14.70;99.90;;;;;;5114805;27;20081;-81
2023/06/06 05:23:34;;;;;;;8.65;3.65;;;14.80;99.90;;;;;;5107980;27;20032;-81
2023/06/06 05:25:59;;;;;;;6.55;3.50;;;14.80;99.90;;;;;;5101109;27;20051;-82
2023/06/06 05:28:26;;;;;;;7.70;3.90;;;14.80;99.90;;;;;;5118336;27;20413;-81
2023/06/06 05:30:52;;;;;;;9.88;3.75;;;14.90;99.90;;;;;;5106797;27;20538;-81
2023/06/06 05:33:19;;;;;;;10.00;3.85;;;14.90;99.90;;;;;;5112466;27;20036;-82
2023/06/06 05:35:47;;;;;;;8.52;3.63;;;14.90;99.90;;;;;;5110976;27;20028;-82
2023/06/06 05:38:13;;;;;;;12.35;4.70;;;15.00;99.90;;;;;;5106058;27;20578;-82
2023/06/06 05:40:38;;;;;;;16.40;5.75;;;15.00;99.90;;;;;;5115870;27;20023;-82
2023/06/06 05:43:04;;;;;;;9.32;4.90;;;15.00;99.90;;;;;;5110014;27;20046;-82
2023/06/06 05:45:30;;;;;;;9.00;4.53;;;15.10;99.90;;;;;;5103442;27;20031;-81
2023/06/06 05:47:56;;;;;;;8.00;3.42;;;15.20;99.90;;;;;;5110323;27;20023;-81
2023/06/06 05:50:21;;;;;;;9.52;4.03;;;15.20;99.90;;;;;;5102868;27;20038;-81
2023/06/06 05:52:47;;;;;;;15.57;4.18;;;15.20;99.90;;;;;;5112288;27;20406;-82
2023/06/06 05:55:27;;;;;;;7.05;3.75;;;15.20;99.90;;;;;;5113347;27;20042;-82
2023/06/06 05:57:52;;;;;;;5.28;3.50;;;15.30;99.90;;;;;;5114012;27;20040;-82
2023/06/06 06:00:19;;;;;;;17.30;4.80;;;15.30;99.90;;;;;;5105858;27;20055;-82
2023/06/06 06:02:45;;;;;;;9.48;4.00;;;15.40;99.90;;;;;;5108194;27;20023;-81
2023/06/06 06:05:10;;;;;;;8.02;4.05;;;15.50;99.90;;;;;;5106111;27;20155;-82
2023/06/06 06:07:37;;;;;;;8.98;4.00;;;15.50;99.90;;;;;;5109531;27;20163;-82
2023/06/06 06:10:03;;;;;;;3.97;3.38;;;15.50;99.90;;;;;;5110203;27;20111;-82
2023/06/06 06:12:28;;;;;;;5.72;3.67;;;15.40;99.90;;;;;;5109418;27;20447;-83
2023/06/06 06:14:54;;;;;;;7.50;3.47;;;15.40;99.90;;;;;;5103721;27;20035;-82
2023/06/06 06:17:20;;;;;;;7.03;4.10;;;15.50;99.90;;;;;;5121513;27;20035;-82
2023/06/06 06:19:46;;;;;;;10.10;4.20;;;15.40;99.90;;;;;;5113451;27;20031;-82
2023/06/06 06:22:12;;;;;;;9.00;4.43;;;15.40;99.90;;;;;;5102979;27;20035;-82
2023/06/06 06:24:37;;;;;;;7.63;3.85;;;15.50;99.90;;;;;;5112927;27;20476;-80
2023/06/06 06:27:03;;;;;;;11.23;4.05;;;15.50;99.90;;;;;;5098776;27;20505;-82
2023/06/06 06:29:28;;;;;;;6.85;3.78;;;15.50;99.90;;;;;;5113390;27;20539;-82
2023/06/06 06:31:54;;;;;;;5.35;3.10;;;15.50;99.90;;;;;;5108595;27;20071;-82
2023/06/06 06:34:19;;;;;;;8.50;4.10;;;15.50;99.90;;;;;;5108113;27;20034;-82
2023/06/06 06:36:47;;;;;;;4.43;3.35;;;15.50;99.90;;;;;;5115585;27;20027;-81
2023/06/06 06:39:18;;;;;;;7.18;3.92;;;15.50;99.90;;;;;;5108429;27;20092;-82
2023/06/06 06:41:45;;;;;;;7.38;3.97;;;15.40;99.90;;;;;;5106867;27;20089;-82
2023/06/06 06:44:10;;;;;;;6.40;3.70;;;15.50;99.90;;;;;;5093380;27;20114;-81
2023/06/06 06:46:36;;;;;;;9.38;4.05;;;15.50;99.90;;;;;;5113146;27;20115;-81
2023/06/06 06:49:01;;;;;;;11.85;3.70;;;15.50;99.90;;;;;;5110908;27;20035;-81
2023/06/06 06:51:27;;;;;;;4.65;3.50;;;15.50;99.90;;;;;;5106069;27;20032;-82
2023/06/06 06:53:53;;;;;;;16.05;4.25;;;15.50;99.90;;;;;;5107978;27;20047;-81
2023/06/06 06:56:18;;;;;;;11.98;3.70;;;15.50;99.90;;;;;;5110828;27;20023;-82
2023/06/06 06:58:44;;;;;;;6.72;3.92;;;15.50;99.90;;;;;;5114111;27;20019;-81
2023/06/06 07:01:10;;;;;;;9.90;3.92;;;15.60;99.90;;;;;;5111853;27;20027;-81
2023/06/06 07:03:36;;;;;;;10.68;3.95;;;15.60;99.90;;;;;;5109561;27;20023;-82
2023/06/06 07:06:05;;;;;;;7.97;3.65;;;15.60;99.90;;;;;;5098910;27;20038;-81
2023/06/06 07:08:30;;;;;;;10.68;3.85;;;15.60;99.90;;;;;;5122658;27;20110;-82
2023/06/06 07:10:57;;;;;;;7.03;3.70;;;15.60;99.90;;;;;;5110446;27;20244;-80
2023/06/06 07:13:22;;;;;;;7.25;3.17;;;15.60;99.90;;;;;;5104380;27;20043;-81
2023/06/06 07:15:48;;;;;;;5.45;3.30;;;15.60;99.90;;;;;;5110348;27;20039;-82
2023/06/06 07:18:13;;;;;;;12.30;4.30;;;15.60;99.90;;;;;;5105706;28;20046;-82
2023/06/06 07:20:39;;;;;;;4.18;3.25;;;15.60;99.90;;;;;;5097467;27;20059;-82
2023/06/06 07:23:06;;;;;;;5.40;3.20;;;15.60;99.90;;;;;;5110719;27;20104;-82
2023/06/06 07:25:32;;;;;;;7.68;3.85;;;15.60;99.90;;;;;;5104278;27;20147;-81
2023/06/06 07:27:58;;;;;;;7.13;3.60;;;15.60;99.90;;;;;;5122458;27;20451;-82
2023/06/06 07:30:24;;;;;;;6.97;3.13;;;15.60;99.90;;;;;;5126177;27;20023;-81
2023/06/06 07:32:50;;;;;;;8.10;4.43;;;15.60;99.90;;;;;;5117321;27;20035;-82
2023/06/06 07:35:21;;;;;;;10.15;3.88;;;15.60;99.90;;;;;;5107677;28;20036;-82
2023/06/06 07:37:47;;;;;;;5.55;3.67;;;15.60;99.90;;;;;;5109970;28;20035;-81
2023/06/06 07:40:13;;;;;;;7.22;3.70;;;15.60;99.90;;;;;;5124955;28;20499;-82
2023/06/06 07:42:42;;;;;;;4.97;3.67;;;15.60;99.90;;;;;;5125161;28;20051;-82
2023/06/06 07:45:08;;;;;;;5.50;3.78;;;15.60;99.90;;;;;;5124512;28;20114;-82
2023/06/06 07:47:34;;;;;;;8.95;4.75;;;15.60;99.90;;;;;;5118264;28;20040;-83
2023/06/06 07:49:59;;;;;;;6.30;3.30;;;15.60;99.90;;;;;;5111349;28;20028;-82
2023/06/06 07:52:25;;;;;;;10.98;3.58;;;15.60;99.90;;;;;;5113446;28;20123;-81
2023/06/06 07:54:51;;;;;;;5.22;3.20;;;15.60;99.90;;;;;;5113724;28;20329;-81
2023/06/06 07:57:17;;;;;;;6.50;3.13;;;15.60;99.90;;;;;;5112557;28;20094;-82
2023/06/06 07:59:43;;;;;;;9.75;4.63;;;15.60;99.90;;;;;;5115199;28;20056;-82
2023/06/06 08:02:10;;;;;;;14.32;3.85;;;15.70;99.90;;;;;;5103146;28;20377;-82
2023/06/06 08:04:36;;;;;;;7.38;3.70;;;15.60;99.90;;;;;;5116257;28;20369;-82
2023/06/06 08:07:03;;;;;;;9.82;4.00;;;15.60;99.90;;;;;;5110643;28;20030;-82
2023/06/06 08:09:30;;;;;;;14.57;4.75;;;15.60;99.90;;;;;;5119277;28;20030;-81
2023/06/06 08:11:57;;;;;;;14.13;4.25;;;15.70;99.90;;;;;;5117481;28;20036;-82
2023/06/06 08:14:22;;;;;;;10.43;4.57;;;15.70;99.90;;;;;;5111214;28;20055;-81
2023/06/06 08:16:49;;;;;;;9.10;4.80;;;15.70;99.90;;;;;;5108126;28;20028;-83
2023/06/06 08:19:14;;;;;;;9.95;4.85;;;15.80;99.90;;;;;;5100236;28;20031;-81
2023/06/06 08:21:40;;;;;;;10.57;4.78;;;15.80;99.90;;;;;;5114902;28;20423;-81
2023/06/06 08:24:05;;;;;;;8.50;3.92;;;15.80;99.90;;;;;;5103221;28;20027;-82
2023/06/06 08:26:33;;;;;;;6.93;4.13;;;15.80;99.90;;;;;;5104194;28;20044;-81
2023/06/06 08:28:59;;;;;;;5.15;3.50;;;15.70;99.90;;;;;;5121007;28;20349;-81
2023/06/06 08:31:25;;;;;;;7.82;4.30;;;15.80;99.90;;;;;;5110127;28;20063;-82
2023/06/06 08:33:50;;;;;;;13.55;4.80;;;15.80;99.90;;;;;;5111029;28;20028;-82
2023/06/06 08:36:16;;;;;;;12.40;4.30;;;15.80;99.90;;;;;;5112136;27;20031;-82
2023/06/06 08:38:45;;;;;;;15.05;5.00;;;15.80;99.90;;;;;;5120019;27;20469;-81
2023/06/06 08:41:12;;;;;;;5.80;3.95;;;15.70;99.90;;;;;;5111154;27;20079;-81
2023/06/06 08:43:39;;;;;;;11.43;4.38;;;15.70;99.90;;;;;;5130737;27;20027;-82
2023/06/06 08:46:05;;;;;;;17.80;5.25;;;15.70;99.90;;;;;;5129953;27;20019;-82
2023/06/06 08:48:34;;;;;;;28.52;7.18;;;15.70;99.90;;;;;;5109996;27;20055;-82
2023/06/06 08:51:03;;;;;;;15.77;5.28;;;15.60;99.90;;;;;;5114215;27;20081;-82
2023/06/06 08:53:30;;;;;;;11.52;4.78;;;15.60;99.90;;;;;;5099650;27;20043;-82
2023/06/06 08:55:57;;;;;;;9.07;4.50;;;15.70;99.90;;;;;;5121476;27;20032;-82
2023/06/06 08:58:22;;;;;;;9.88;4.18;;;15.70;99.90;;;;;;5108139;27;20401;-82
2023/06/06 09:00:51;;;;;;;8.18;4.90;;;15.70;99.90;;;;;;5112111;27;20027;-83
2023/06/06 09:03:20;;;;;;;7.93;4.22;;;15.70;99.90;;;;;;5116469;27;20498;-82
2023/06/06 09:05:49;;;;;;;13.45;5.05;;;15.70;99.90;;;;;;5112369;27;20280;-82
2023/06/06 09:08:15;;;;;;;11.07;4.25;;;15.70;99.90;;;;;;5103364;27;20537;-82
2023/06/06 09:10:44;;;;;;;11.27;5.10;;;15.70;99.90;;;;;;5121110;27;20099;-82
2023/06/06 09:13:09;;;;;;;16.48;5.47;;;15.80;99.90;;;;;;5110276;27;20063;-82
2023/06/06 09:15:35;;;;;;;26.42;5.60;;;15.80;99.90;;;;;;5119736;27;20495;-83
2023/06/06 09:18:00;;;;;;;21.13;5.22;;;15.90;99.90;;;;;;5118337;27;20074;-82
2023/06/06 09:20:26;;;;;;;14.32;5.03;;;16.00;99.90;;;;;;5118997;27;20052;-82
2023/06/06 09:22:57;;;;;;;10.27;4.57;;;16.10;99.90;;;;;;5113171;27;20477;-81
2023/06/06 09:25:24;;;;;;;10.98;5.05;;;16.10;99.90;;;;;;5109781;27;20052;-82
2023/06/06 09:27:58;;;;;;;14.85;5.03;;;16.10;99.90;;;;;;5113326;27;20055;-82
2023/06/06 09:30:27;;;;;;;8.57;4.90;;;16.10;99.90;;;;;;5101389;27;20027;-82
2023/06/06 09:33:00;;;;;;;12.63;4.85;;;16.00;99.90;;;;;;5098234;28;20047;-82
2023/06/06 09:35:33;;;;;;;8.60;3.80;;;16.20;99.90;;;;;;5106347;27;20049;-82
2023/06/06 09:38:15;;;;;;;4.65;3.70;;;16.30;99.90;;;;;;5122736;27;20388;-84
2023/06/06 09:40:51;;;;;;;7.88;4.22;;;16.60;99.90;;;;;;5128341;27;20055;-82
2023/06/06 09:43:23;;;;;;;8.00;3.47;;;16.80;99.90;;;;;;5121978;27;20273;-82
2023/06/06 09:45:50;;;;;;;5.30;3.75;;;16.90;99.90;;;;;;5118406;27;20031;-82
2023/06/06 09:48:20;;;;;;;4.93;3.20;;;17.00;99.90;;;;;;5112938;27;20020;-82
2023/06/06 09:50:46;;;;;;;8.90;4.03;;;17.10;99.90;;;;;;5094383;28;20076;-82
2023/06/06 09:53:12;;;;;;;8.77;4.10;;;17.20;99.90;;;;;;5126379;27;20044;-82
2023/06/06 09:55:39;;;;;;;11.57;4.40;;;17.20;99.90;;;;;;5127115;27;20040;-82
2023/06/06 09:58:07;;;;;;;8.77;4.70;;;17.30;99.90;;;;;;5126369;27;20058;-82
2023/06/06 10:00:38;;;;;;;8.50;4.35;;;17.30;99.90;;;;;;5125572;27;20016;-82
2023/06/06 10:03:07;;;;;;;9.55;4.25;;;17.40;99.90;;;;;;5121159;27;20032;-82
2023/06/06 10:05:32;;;;;;;10.77;4.60;;;17.30;99.90;;;;;;5117293;27;20607;-82
2023/06/06 10:07:59;;;;;;;10.35;4.13;;;17.30;99.90;;;;;;5124174;27;20023;-82
2023/06/06 10:10:25;;;;;;;7.75;4.35;;;17.30;99.90;;;;;;5122969;27;20038;-82
2023/06/06 10:12:53;;;;;;;10.73;4.63;;;17.20;99.90;;;;;;5106403;27;20040;-82
2023/06/06 10:15:20;;;;;;;10.32;4.18;;;17.20;99.90;;;;;;5108873;27;20023;-82
2023/06/06 10:17:46;;;;;;;6.93;4.00;;;17.20;99.90;;;;;;5117362;27;20023;-82
2023/06/06 10:20:12;;;;;;;12.55;5.20;;;17.10;99.90;;;;;;5111284;27;20034;-81
2023/06/06 10:22:39;;;;;;;7.47;4.30;;;17.10;99.90;;;;;;5112631;27;20058;-82
2023/06/06 10:25:09;;;;;;;7.63;4.32;;;17.10;99.90;;;;;;5111102;27;20431;-82
2023/06/06 10:27:50;;;;;;;15.90;4.22;;;17.10;99.90;;;;;;5125930;27;20027;-82
2023/06/06 10:30:28;;;;;;;10.80;4.85;;;17.10;99.90;;;;;;5119453;27;20039;-82
2023/06/06 10:33:02;;;;;;;9.10;4.88;;;17.10;99.90;;;;;;5117533;27;20504;-83
2023/06/06 10:35:30;;;;;;;20.35;4.95;;;17.10;99.90;;;;;;5110303;27;20047;-82
2023/06/06 10:38:03;;;;;;;11.27;4.18;;;17.20;99.90;;;;;;5109126;27;20042;-82
2023/06/06 10:41:03;;;;;;;10.88;4.32;;;17.20;99.90;;;;;;5121907;27;20553;-82
2023/06/06 10:43:35;;;;;;;10.00;4.55;;;17.20;99.90;;;;;;5103285;27;20028;-82
2023/06/06 10:46:02;;;;;;;10.05;4.38;;;17.30;99.90;;;;;;5117295;27;20217;-82
2023/06/06 10:48:53;;;;;;;9.05;5.13;;;17.30;99.90;;;;;;5115285;27;20034;-82
2023/06/06 10:51:29;;;;;;;13.23;4.70;;;17.40;99.90;;;;;;5110634;27;20034;-82
2023/06/06 10:54:27;;;;;;;10.45;4.65;;;17.50;99.90;;;;;;5104914;27;20122;-82
2023/06/06 10:56:54;;;;;;;11.65;5.40;;;17.60;99.90;;;;;;5118431;27;20035;-82
2023/06/06 10:59:25;;;;;;;17.45;5.70;;;17.70;99.90;;;;;;5103183;28;20068;-82
2023/06/06 11:01:52;;;;;;;12.68;5.30;;;17.80;99.90;;;;;;5111311;27;20027;-82
2023/06/06 11:04:25;;;;;;;13.65;5.60;;;17.90;99.90;;;;;;5110756;27;20032;-82
2023/06/06 11:06:53;;;;;;;14.85;5.00;;;17.90;99.90;;;;;;5111041;27;20058;-82
2023/06/06 11:09:24;;;;;;;12.68;4.88;;;18.00;99.90;;;;;;5117539;27;20019;-82
2023/06/06 11:12:09;;;;;;;16.20;5.53;;;18.00;99.90;;;;;;5107407;27;21596;-84
2023/06/06 11:14:57;;;;;;;14.90;5.03;;;18.10;99.90;;;;;;5117116;27;20031;-82
2023/06/06 11:17:40;;;;;;;16.13;6.57;;;18.10;99.90;;;;;;5110359;27;20151;-82
2023/06/06 11:20:07;;;;;;;19.95;5.13;;;18.00;99.90;;;;;;5108768;27;20399;-82
2023/06/06 11:22:33;;;;;;;13.35;5.97;;;18.00;99.90;;;;;;5100926;28;20112;-84
2023/06/06 11:24:59;;;;;;;15.85;5.68;;;18.00;99.90;;;;;;5108828;27;20363;-83
2023/06/06 11:27:26;;;;;;;14.00;5.57;;;18.10;99.90;;;;;;5101040;28;20042;-83
2023/06/06 11:29:53;;;;;;;13.05;4.55;;;18.20;99.90;;;;;;5095635;27;20392;-82
2023/06/06 11:32:18;;;;;;;17.33;5.35;;;18.20;99.90;;;;;;5114003;27;20050;-82
2023/06/06 11:34:44;;;;;;;14.45;4.78;;;18.30;99.90;;;;;;5121685;27;20023;-82
2023/06/06 11:37:10;;;;;;;12.73;4.95;;;18.30;99.90;;;;;;5117868;27;20026;-82
2023/06/06 11:39:36;;;;;;;16.42;5.63;;;18.40;99.90;;;;;;5106948;28;20497;-83
2023/06/06 11:42:02;;;;;;;10.50;4.18;;;18.50;99.90;;;;;;5106579;28;20039;-82
2023/06/06 11:44:37;;;;;;;12.68;4.53;;;18.60;99.90;;;;;;5104740;28;20032;-82
2023/06/06 11:47:03;;;;;;;10.68;5.10;;;18.60;99.90;;;;;;5104952;28;20491;-84
2023/06/06 11:49:40;;;;;;;8.27;4.60;;;18.70;99.90;;;;;;5106908;28;20023;-84
2023/06/06 11:52:07;;;;;;;13.18;4.70;;;18.70;99.90;;;;;;5105297;28;20046;-82
2023/06/06 11:54:33;;;;;;;13.45;4.32;;;18.70;99.90;;;;;;5104677;28;20047;-82
2023/06/06 11:57:02;;;;;;;11.98;4.47;;;18.80;99.90;;;;;;5115026;28;20031;-82
2023/06/06 11:59:28;;;;;;;16.92;5.07;;;18.90;99.90;;;;;;5114143;28;20311;-83
2023/06/06 12:01:54;;;;;;;7.90;4.43;;;18.80;99.90;;;;;;5107280;28;20038;-82
2023/06/06 12:04:28;;;;;;;11.13;3.92;;;18.90;99.90;;;;;;5104677;28;20055;-82
2023/06/06 12:06:57;;;;;;;9.33;5.23;;;18.80;99.90;;;;;;5099617;28;20392;-82
2023/06/06 12:09:24;;;;;;;11.52;4.65;;;18.90;99.90;;;;;;5084741;28;20019;-82
2023/06/06 12:11:53;;;;;;;9.45;4.82;;;18.90;99.90;;;;;;5111737;27;20023;-83
2023/06/06 12:14:20;;;;;;;14.23;4.93;;;18.90;99.90;;;;;;5124331;27;20488;-83
2023/06/06 12:16:46;;;;;;;9.77;4.72;;;19.10;99.90;;;;;;5111477;27;20053;-82
2023/06/06 12:19:15;;;;;;;12.13;4.78;;;19.20;99.90;;;;;;5115828;27;20024;-82
2023/06/06 12:21:49;;;;;;;21.95;5.82;;;19.20;99.90;;;;;;5110010;27;20036;-83
2023/06/06 12:24:17;;;;;;;13.35;4.53;;;19.30;99.90;;;;;;5119577;27;20059;-81
2023/06/06 12:26:53;;;;;;;15.02;4.43;;;19.30;99.90;;;;;;5104773;27;20063;-82
2023/06/06 12:29:19;;;;;;;9.93;5.00;;;19.40;99.90;;;;;;5118007;27;20030;-83
2023/06/06 12:31:48;;;;;;;13.13;4.95;;;19.50;99.90;;;;;;5107994;27;20059;-82
2023/06/06 12:34:14;;;;;;;10.93;4.85;;;19.50;99.90;;;;;;5116119;27;20058;-82
2023/06/06 12:36:41;;;;;;;10.57;4.63;;;19.60;99.90;;;;;;5109197;27;20473;-85
2023/06/06 12:39:11;;;;;;;13.90;4.82;;;19.70;99.90;;;;;;5111526;27;20045;-82
2023/06/06 12:41:41;;;;;;;9.10;4.40;;;19.80;99.90;;;;;;5107783;27;20031;-84
2023/06/06 12:44:11;;;;;;;15.43;4.78;;;19.90;99.90;;;;;;5108893;27;20024;-83
2023/06/06 12:46:42;;;;;;;10.32;4.50;;;20.00;99.90;;;;;;5111560;27;20084;-82